sensor_id;sensor_type;location;lat;lon;timestamp;pressure;altitude;pressure_sealevel;temperature;humidity
26657;BME280;14279;50.010;8.260;2022-08-21T00:02:18;100495.56;;;21.71;46.98
26657;BME280;14279;50.010;8.260;2022-08-21T00:04:45;100497.69;;;21.68;46.95
26657;BME280;14279;50.010;8.260;2022-08-21T00:07:10;100494.75;;;21.71;47.36
26657;BME280;14279;50.010;8.260;2022-08-21T00:09:36;100495.56;;;21.71;47.80
26657;BME280;14279;50.010;8.260;2022-08-21T00:12:03;100497.53;;;21.69;47.88
26657;BME280;14279;50.010;8.260;2022-08-21T00:14:28;100493.50;;;21.65;47.32
26657;BME280;14279;50.010;8.260;2022-08-21T00:19:19;100495.44;;;21.53;47.24
26657;BME280;14279;50.010;8.260;2022-08-21T00:21:44;100493.44;;;21.36;46.34
26657;BME280;14279;50.010;8.260;2022-08-21T00:24:11;100496.66;;;21.29;45.30
26657;BME280;14279;50.010;8.260;2022-08-21T00:26:36;100489.38;;;21.22;45.60
26657;BME280;14279;50.010;8.260;2022-08-21T00:29:04;100488.13;;;21.16;45.79
26657;BME280;14279;50.010;8.260;2022-08-21T00:31:30;100487.88;;;21.19;46.10
26657;BME280;14279;50.010;8.260;2022-08-21T00:33:55;100489.28;;;21.23;46.68
26657;BME280;14279;50.010;8.260;2022-08-21T00:36:21;100492.47;;;21.27;46.60
26657;BME280;14279;50.010;8.260;2022-08-21T00:38:46;100495.25;;;21.06;45.75
26657;BME280;14279;50.010;8.260;2022-08-21T00:41:11;100493.41;;;20.65;46.22
26657;BME280;14279;50.010;8.260;2022-08-21T00:43:38;100489.56;;;20.48;47.29
26657;BME280;14279;50.010;8.260;2022-08-21T00:46:04;100493.97;;;20.38;47.90
26657;BME280;14279;50.010;8.260;2022-08-21T00:48:30;100497.72;;;20.35;47.41
26657;BME280;14279;50.010;8.260;2022-08-21T00:51:00;100496.63;;;20.17;47.60
26657;BME280;14279;50.010;8.260;2022-08-21T00:53:27;100489.38;;;20.09;48.00
26657;BME280;14279;50.010;8.260;2022-08-21T00:55:54;100493.38;;;20.03;48.25
26657;BME280;14279;50.010;8.260;2022-08-21T00:58:20;100487.38;;;20.01;48.33
26657;BME280;14279;50.010;8.260;2022-08-21T01:00:48;100496.47;;;20.08;48.02
26657;BME280;14279;50.010;8.260;2022-08-21T01:03:17;100498.78;;;20.02;48.35
26657;BME280;14279;50.010;8.260;2022-08-21T01:05:43;100500.59;;;20.01;48.39
26657;BME280;14279;50.010;8.260;2022-08-21T01:08:13;100493.56;;;19.90;48.76
26657;BME280;14279;50.010;8.260;2022-08-21T01:10:39;100492.69;;;19.68;49.23
26657;BME280;14279;50.010;8.260;2022-08-21T01:13:07;100498.47;;;19.62;49.52
26657;BME280;14279;50.010;8.260;2022-08-21T01:15:38;100494.53;;;19.57;49.64
26657;BME280;14279;50.010;8.260;2022-08-21T01:18:06;100496.56;;;19.53;49.81
26657;BME280;14279;50.010;8.260;2022-08-21T01:20:32;100494.28;;;19.60;49.66
26657;BME280;14279;50.010;8.260;2022-08-21T01:22:58;100492.28;;;19.73;49.28
26657;BME280;14279;50.010;8.260;2022-08-21T01:25:23;100494.53;;;19.78;49.52
26657;BME280;14279;50.010;8.260;2022-08-21T01:27:48;100489.00;;;19.81;49.31
26657;BME280;14279;50.010;8.260;2022-08-21T01:30:24;100492.25;;;19.85;49.34
26657;BME280;14279;50.010;8.260;2022-08-21T01:32:52;100494.28;;;19.92;49.27
26657;BME280;14279;50.010;8.260;2022-08-21T01:35:18;100492.75;;;19.78;49.73
26657;BME280;14279;50.010;8.260;2022-08-21T01:37:44;100494.78;;;19.75;49.78
26657;BME280;14279;50.010;8.260;2022-08-21T01:40:13;100498.78;;;19.69;50.02
26657;BME280;14279;50.010;8.260;2022-08-21T01:42:39;100487.19;;;19.60;50.28
26657;BME280;14279;50.010;8.260;2022-08-21T01:45:06;100484.75;;;19.68;50.22
26657;BME280;14279;50.010;8.260;2022-08-21T01:47:32;100488.13;;;19.71;50.02
26657;BME280;14279;50.010;8.260;2022-08-21T01:49:58;100485.91;;;19.76;49.97
26657;BME280;14279;50.010;8.260;2022-08-21T01:52:23;100479.25;;;19.60;50.57
26657;BME280;14279;50.010;8.260;2022-08-21T01:54:48;100475.59;;;19.51;51.02
26657;BME280;14279;50.010;8.260;2022-08-21T01:57:14;100479.19;;;19.50;50.93
26657;BME280;14279;50.010;8.260;2022-08-21T01:59:39;100470.97;;;19.32;51.26
26657;BME280;14279;50.010;8.260;2022-08-21T02:02:05;100470.97;;;19.32;51.25
26657;BME280;14279;50.010;8.260;2022-08-21T02:04:31;100468.56;;;19.29;51.52
26657;BME280;14279;50.010;8.260;2022-08-21T02:06:57;100462.84;;;19.24;51.63
26657;BME280;14279;50.010;8.260;2022-08-21T02:09:23;100468.72;;;19.16;51.88
26657;BME280;14279;50.010;8.260;2022-08-21T02:11:48;100467.69;;;19.07;51.99
26657;BME280;14279;50.010;8.260;2022-08-21T02:14:15;100465.28;;;19.04;52.29
26657;BME280;14279;50.010;8.260;2022-08-21T02:16:49;100465.91;;;18.97;52.29
26657;BME280;14279;50.010;8.260;2022-08-21T02:19:18;100468.03;;;18.91;52.91
26657;BME280;14279;50.010;8.260;2022-08-21T02:21:43;100462.53;;;18.95;52.74
26657;BME280;14279;50.010;8.260;2022-08-21T02:24:10;100471.19;;;18.97;52.78
26657;BME280;14279;50.010;8.260;2022-08-21T02:26:35;100462.53;;;18.95;52.69
26657;BME280;14279;50.010;8.260;2022-08-21T02:29:01;100466.38;;;19.02;52.68
26657;BME280;14279;50.010;8.260;2022-08-21T02:31:26;100468.78;;;19.05;52.58
26657;BME280;14279;50.010;8.260;2022-08-21T02:33:51;100466.84;;;19.07;52.74
26657;BME280;14279;50.010;8.260;2022-08-21T02:36:17;100464.69;;;19.12;52.50
26657;BME280;14279;50.010;8.260;2022-08-21T02:38:42;100470.94;;;19.11;52.42
26657;BME280;14279;50.010;8.260;2022-08-21T02:41:14;100463.25;;;19.08;52.72
26657;BME280;14279;50.010;8.260;2022-08-21T02:43:41;100469.97;;;19.12;52.67
26657;BME280;14279;50.010;8.260;2022-08-21T02:46:08;100464.22;;;19.07;52.60
26657;BME280;14279;50.010;8.260;2022-08-21T02:48:34;100465.91;;;18.97;52.92
26657;BME280;14279;50.010;8.260;2022-08-21T02:51:04;100474.78;;;18.96;52.95
26657;BME280;14279;50.010;8.260;2022-08-21T02:53:31;100470.22;;;18.98;52.92
26657;BME280;14279;50.010;8.260;2022-08-21T02:55:59;100473.00;;;18.96;52.94
26657;BME280;14279;50.010;8.260;2022-08-21T02:58:30;100470.22;;;18.86;53.35
26657;BME280;14279;50.010;8.260;2022-08-21T03:00:56;100476.69;;;18.82;53.31
26657;BME280;14279;50.010;8.260;2022-08-21T03:06:49;100472.03;;;18.74;53.77
26657;BME280;14279;50.010;8.260;2022-08-21T03:09:14;100475.00;;;18.70;53.75
26657;BME280;14279;50.010;8.260;2022-08-21T03:11:39;100466.66;;;18.65;53.98
26657;BME280;14279;50.010;8.260;2022-08-21T03:14:05;100464.72;;;18.67;54.04
26657;BME280;14279;50.010;8.260;2022-08-21T03:16:30;100463.66;;;18.69;54.20
26657;BME280;14279;50.010;8.260;2022-08-21T03:18:55;100461.00;;;18.69;54.37
26657;BME280;14279;50.010;8.260;2022-08-21T03:21:20;100467.13;;;18.58;54.50
26657;BME280;14279;50.010;8.260;2022-08-21T03:23:46;100467.13;;;18.58;54.48
26657;BME280;14279;50.010;8.260;2022-08-21T03:26:11;100459.81;;;18.73;54.40
26657;BME280;14279;50.010;8.260;2022-08-21T03:28:37;100466.25;;;18.81;54.21
26657;BME280;14279;50.010;8.260;2022-08-21T03:31:02;100466.97;;;18.83;54.13
26657;BME280;14279;50.010;8.260;2022-08-21T03:33:28;100464.09;;;18.86;53.89
26657;BME280;14279;50.010;8.260;2022-08-21T03:36:00;100460.53;;;18.75;53.87
26657;BME280;14279;50.010;8.260;2022-08-21T03:38:27;100457.19;;;18.73;54.11
26657;BME280;14279;50.010;8.260;2022-08-21T03:40:53;100461.13;;;18.56;54.02
26657;BME280;14279;50.010;8.260;2022-08-21T03:43:18;100461.38;;;18.65;53.57
26657;BME280;14279;50.010;8.260;2022-08-21T03:45:44;100464.38;;;18.48;54.10
26657;BME280;14279;50.010;8.260;2022-08-21T03:48:09;100457.91;;;18.41;54.22
26657;BME280;14279;50.010;8.260;2022-08-21T03:50:38;100466.16;;;18.48;54.10
26657;BME280;14279;50.010;8.260;2022-08-21T03:53:04;100465.69;;;18.54;54.45
26657;BME280;14279;50.010;8.260;2022-08-21T03:55:29;100464.47;;;18.47;54.05
26657;BME280;14279;50.010;8.260;2022-08-21T03:57:55;100462.94;;;18.44;54.29
26657;BME280;14279;50.010;8.260;2022-08-21T04:00:21;100471.44;;;18.37;54.82
26657;BME280;14279;50.010;8.260;2022-08-21T04:02:47;100466.16;;;18.37;54.56
26657;BME280;14279;50.010;8.260;2022-08-21T04:05:13;100473.84;;;18.40;54.43
26657;BME280;14279;50.010;8.260;2022-08-21T04:07:39;100473.56;;;18.43;54.55
26657;BME280;14279;50.010;8.260;2022-08-21T04:10:06;100471.78;;;18.55;54.11
26657;BME280;14279;50.010;8.260;2022-08-21T04:12:31;100476.22;;;18.54;53.93
26657;BME280;14279;50.010;8.260;2022-08-21T04:14:57;100473.97;;;18.50;54.46
26657;BME280;14279;50.010;8.260;2022-08-21T04:17:22;100475.03;;;18.47;54.31
26657;BME280;14279;50.010;8.260;2022-08-21T04:19:47;100480.31;;;18.58;53.73
26657;BME280;14279;50.010;8.260;2022-08-21T04:22:14;100476.81;;;18.58;54.08
26657;BME280;14279;50.010;8.260;2022-08-21T04:24:39;100489.19;;;18.57;53.78
26657;BME280;14279;50.010;8.260;2022-08-21T04:27:04;100489.78;;;18.50;54.12
26657;BME280;14279;50.010;8.260;2022-08-21T04:29:29;100499.38;;;18.51;54.57
26657;BME280;14279;50.010;8.260;2022-08-21T04:31:54;100505.00;;;18.57;53.79
26657;BME280;14279;50.010;8.260;2022-08-21T04:34:20;100504.28;;;18.55;53.97
26657;BME280;14279;50.010;8.260;2022-08-21T04:36:45;100503.44;;;18.66;53.63
26657;BME280;14279;50.010;8.260;2022-08-21T04:39:10;100505.94;;;18.56;53.17
26657;BME280;14279;50.010;8.260;2022-08-21T04:41:36;100509.53;;;18.67;53.31
26657;BME280;14279;50.010;8.260;2022-08-21T04:44:02;100509.78;;;18.75;53.43
26657;BME280;14279;50.010;8.260;2022-08-21T04:46:28;100512.03;;;18.80;53.00
26657;BME280;14279;50.010;8.260;2022-08-21T04:48:53;100520.69;;;18.70;53.26
26657;BME280;14279;50.010;8.260;2022-08-21T04:51:29;100518.75;;;18.84;52.85
26657;BME280;14279;50.010;8.260;2022-08-21T04:54:00;100514.22;;;18.74;52.58
26657;BME280;14279;50.010;8.260;2022-08-21T04:56:42;100515.19;;;18.51;52.98
26657;BME280;14279;50.010;8.260;2022-08-21T04:59:13;100517.63;;;18.18;53.72
26657;BME280;14279;50.010;8.260;2022-08-21T05:01:41;100511.66;;;18.27;53.72
26657;BME280;14279;50.010;8.260;2022-08-21T05:04:11;100521.31;;;18.04;54.09
26657;BME280;14279;50.010;8.260;2022-08-21T05:06:39;100518.25;;;17.97;54.33
26657;BME280;14279;50.010;8.260;2022-08-21T05:09:06;100519.97;;;17.98;54.16
26657;BME280;14279;50.010;8.260;2022-08-21T05:11:34;100522.50;;;18.00;54.31
26657;BME280;14279;50.010;8.260;2022-08-21T05:14:00;100525.00;;;18.01;54.29
26657;BME280;14279;50.010;8.260;2022-08-21T05:16:25;100522.94;;;17.94;54.41
26657;BME280;14279;50.010;8.260;2022-08-21T05:18:51;100536.28;;;18.03;54.27
26657;BME280;14279;50.010;8.260;2022-08-21T05:21:16;100526.88;;;18.24;53.94
26657;BME280;14279;50.010;8.260;2022-08-21T05:23:42;100526.59;;;18.15;53.60
26657;BME280;14279;50.010;8.260;2022-08-21T05:26:08;100523.63;;;18.20;54.06
26657;BME280;14279;50.010;8.260;2022-08-21T05:28:33;100530.09;;;18.16;53.88
26657;BME280;14279;50.010;8.260;2022-08-21T05:30:58;100527.84;;;18.23;53.86
26657;BME280;14279;50.010;8.260;2022-08-21T05:33:24;100526.16;;;18.33;53.57
26657;BME280;14279;50.010;8.260;2022-08-21T05:35:51;100525.56;;;18.29;53.65
26657;BME280;14279;50.010;8.260;2022-08-21T05:38:17;100531.59;;;18.07;54.09
26657;BME280;14279;50.010;8.260;2022-08-21T05:40:42;100529.97;;;18.17;53.81
26657;BME280;14279;50.010;8.260;2022-08-21T05:43:08;100530.19;;;18.14;53.95
26657;BME280;14279;50.010;8.260;2022-08-21T05:45:33;100532.78;;;18.39;53.68
26657;BME280;14279;50.010;8.260;2022-08-21T05:48:06;100531.22;;;18.47;53.11
26657;BME280;14279;50.010;8.260;2022-08-21T05:50:32;100540.91;;;18.47;53.24
26657;BME280;14279;50.010;8.260;2022-08-21T05:52:57;100533.72;;;18.38;53.57
26657;BME280;14279;50.010;8.260;2022-08-21T05:55:22;100534.91;;;18.45;53.36
26657;BME280;14279;50.010;8.260;2022-08-21T05:57:47;100530.13;;;18.50;53.34
26657;BME280;14279;50.010;8.260;2022-08-21T06:00:13;100533.53;;;18.63;53.17
26657;BME280;14279;50.010;8.260;2022-08-21T06:02:39;100529.66;;;18.68;52.87
26657;BME280;14279;50.010;8.260;2022-08-21T06:05:05;100535.44;;;18.84;52.53
26657;BME280;14279;50.010;8.260;2022-08-21T06:07:30;100538.41;;;18.57;53.32
26657;BME280;14279;50.010;8.260;2022-08-21T06:09:56;100538.78;;;18.63;53.01
26657;BME280;14279;50.010;8.260;2022-08-21T06:12:21;100534.94;;;18.79;52.86
26657;BME280;14279;50.010;8.260;2022-08-21T06:14:49;100533.53;;;18.86;52.80
26657;BME280;14279;50.010;8.260;2022-08-21T06:17:19;100529.66;;;18.90;52.62
26657;BME280;14279;50.010;8.260;2022-08-21T06:19:52;100533.66;;;18.96;52.53
26657;BME280;14279;50.010;8.260;2022-08-21T06:22:20;100531.03;;;18.96;52.18
26657;BME280;14279;50.010;8.260;2022-08-21T06:24:46;100534.25;;;19.00;52.31
26657;BME280;14279;50.010;8.260;2022-08-21T06:27:11;100535.66;;;19.27;52.03
26657;BME280;14279;50.010;8.260;2022-08-21T06:29:37;100530.22;;;19.40;51.76
26657;BME280;14279;50.010;8.260;2022-08-21T06:35:36;100528.25;;;19.53;51.52
26657;BME280;14279;50.010;8.260;2022-08-21T06:38:01;100529.66;;;19.68;51.41
26657;BME280;14279;50.010;8.260;2022-08-21T06:40:28;100523.53;;;19.68;51.22
26657;BME280;14279;50.010;8.260;2022-08-21T06:42:54;100518.91;;;19.81;51.00
26657;BME280;14279;50.010;8.260;2022-08-21T06:45:19;100522.28;;;19.83;50.90
26657;BME280;14279;50.010;8.260;2022-08-21T06:47:45;100520.44;;;19.95;51.04
26657;BME280;14279;50.010;8.260;2022-08-21T06:50:10;100516.22;;;19.93;51.31
26657;BME280;14279;50.010;8.260;2022-08-21T06:52:36;100518.22;;;20.01;51.01
26657;BME280;14279;50.010;8.260;2022-08-21T06:55:05;100524.75;;;20.18;51.03
26657;BME280;14279;50.010;8.260;2022-08-21T06:57:31;100515.13;;;20.38;50.05
26657;BME280;14279;50.010;8.260;2022-08-21T06:59:56;100520.06;;;20.52;50.04
26657;BME280;14279;50.010;8.260;2022-08-21T07:02:21;100521.63;;;20.55;49.93
26657;BME280;14279;50.010;8.260;2022-08-21T07:04:46;100520.06;;;20.52;49.76
26657;BME280;14279;50.010;8.260;2022-08-21T07:07:11;100518.44;;;20.61;50.13
26657;BME280;14279;50.010;8.260;2022-08-21T07:09:37;100522.66;;;20.42;50.71
26657;BME280;14279;50.010;8.260;2022-08-21T07:12:02;100516.94;;;20.37;51.29
26657;BME280;14279;50.010;8.260;2022-08-21T07:14:28;100527.34;;;20.29;51.72
26657;BME280;14279;50.010;8.260;2022-08-21T07:16:53;100522.91;;;20.39;51.54
26657;BME280;14279;50.010;8.260;2022-08-21T07:19:19;100523.63;;;20.41;51.74
26657;BME280;14279;50.010;8.260;2022-08-21T07:21:45;100523.16;;;20.57;51.31
26657;BME280;14279;50.010;8.260;2022-08-21T07:24:11;100524.31;;;20.65;51.33
26657;BME280;14279;50.010;8.260;2022-08-21T07:26:37;100523.63;;;20.72;50.92
26657;BME280;14279;50.010;8.260;2022-08-21T07:29:09;100526.19;;;20.84;50.64
26657;BME280;14279;50.010;8.260;2022-08-21T07:31:34;100520.69;;;20.97;50.36
26657;BME280;14279;50.010;8.260;2022-08-21T07:33:59;100517.53;;;21.13;50.16
26657;BME280;14279;50.010;8.260;2022-08-21T07:36:25;100526.47;;;21.31;49.60
26657;BME280;14279;50.010;8.260;2022-08-21T07:38:50;100516.31;;;21.37;49.52
26657;BME280;14279;50.010;8.260;2022-08-21T07:41:19;100525.66;;;21.41;49.13
26657;BME280;14279;50.010;8.260;2022-08-21T07:43:45;100521.59;;;21.46;49.43
26657;BME280;14279;50.010;8.260;2022-08-21T07:46:11;100515.66;;;21.54;49.02
26657;BME280;14279;50.010;8.260;2022-08-21T07:48:37;100512.44;;;21.70;49.08
26657;BME280;14279;50.010;8.260;2022-08-21T07:51:08;100516.94;;;21.70;49.08
26657;BME280;14279;50.010;8.260;2022-08-21T07:53:35;100513.81;;;22.04;48.42
26657;BME280;14279;50.010;8.260;2022-08-21T07:56:01;100517.84;;;22.08;48.72
26657;BME280;14279;50.010;8.260;2022-08-21T07:58:26;100511.84;;;22.26;48.59
26657;BME280;14279;50.010;8.260;2022-08-21T08:00:51;100510.69;;;22.28;48.77
26657;BME280;14279;50.010;8.260;2022-08-21T08:03:17;100510.16;;;22.25;48.89
26657;BME280;14279;50.010;8.260;2022-08-21T08:05:42;100503.28;;;22.32;48.98
26657;BME280;14279;50.010;8.260;2022-08-21T08:08:08;100500.31;;;22.55;48.78
26657;BME280;14279;50.010;8.260;2022-08-21T08:10:33;100498.38;;;22.47;48.52
26657;BME280;14279;50.010;8.260;2022-08-21T08:12:58;100502.16;;;22.44;48.49
26657;BME280;14279;50.010;8.260;2022-08-21T08:15:26;100499.72;;;22.61;48.04
26657;BME280;14279;50.010;8.260;2022-08-21T08:17:53;100499.22;;;22.75;48.02
26657;BME280;14279;50.010;8.260;2022-08-21T08:20:20;100492.69;;;22.70;48.32
26657;BME280;14279;50.010;8.260;2022-08-21T08:22:48;100495.88;;;22.83;47.89
26657;BME280;14279;50.010;8.260;2022-08-21T08:25:14;100494.25;;;22.90;47.81
26657;BME280;14279;50.010;8.260;2022-08-21T08:27:43;100494.66;;;22.95;47.98
26657;BME280;14279;50.010;8.260;2022-08-21T08:30:10;100490.91;;;23.16;47.50
26657;BME280;14279;50.010;8.260;2022-08-21T08:32:36;100489.19;;;23.25;47.54
26657;BME280;14279;50.010;8.260;2022-08-21T08:35:03;100484.31;;;23.20;47.74
26657;BME280;14279;50.010;8.260;2022-08-21T08:37:29;100479.44;;;23.16;47.82
26657;BME280;14279;50.010;8.260;2022-08-21T08:39:54;100481.69;;;23.38;47.66
26657;BME280;14279;50.010;8.260;2022-08-21T08:42:29;100478.88;;;23.40;47.45
26657;BME280;14279;50.010;8.260;2022-08-21T08:45:03;100476.00;;;23.33;47.52
26657;BME280;14279;50.010;8.260;2022-08-21T08:47:31;100471.97;;;23.65;46.89
26657;BME280;14279;50.010;8.260;2022-08-21T08:50:08;100475.31;;;23.67;46.51
26657;BME280;14279;50.010;8.260;2022-08-21T08:53:03;100469.03;;;23.77;46.68
26657;BME280;14279;50.010;8.260;2022-08-21T08:57:57;100467.19;;;23.95;45.74
26657;BME280;14279;50.010;8.260;2022-08-21T09:00:22;100462.94;;;24.02;45.01
26657;BME280;14279;50.010;8.260;2022-08-21T09:02:52;100463.19;;;24.17;43.88
26657;BME280;14279;50.010;8.260;2022-08-21T09:05:23;100461.72;;;24.23;43.96
26657;BME280;14279;50.010;8.260;2022-08-21T09:11:04;100461.03;;;23.95;42.79
26657;BME280;14279;50.010;8.260;2022-08-21T09:19:04;100453.47;;;24.00;42.73
26657;BME280;14279;50.010;8.260;2022-08-21T09:25:04;100448.72;;;24.46;41.74
26657;BME280;14279;50.010;8.260;2022-08-21T09:28:07;100456.59;;;24.65;41.45
26657;BME280;14279;50.010;8.260;2022-08-21T09:31:26;100454.94;;;24.64;41.16
26657;BME280;14279;50.010;8.260;2022-08-21T09:34:07;100455.88;;;24.54;41.82
26657;BME280;14279;50.010;8.260;2022-08-21T09:36:45;100461.41;;;24.26;41.85
26657;BME280;14279;50.010;8.260;2022-08-21T09:39:24;100464.69;;;23.94;42.30
26657;BME280;14279;50.010;8.260;2022-08-21T09:42:03;100461.22;;;23.93;42.42
26657;BME280;14279;50.010;8.260;2022-08-21T09:44:35;100460.97;;;23.86;42.37
26657;BME280;14279;50.010;8.260;2022-08-21T09:47:06;100453.50;;;23.64;42.67
26657;BME280;14279;50.010;8.260;2022-08-21T09:49:33;100452.06;;;23.96;41.97
26657;BME280;14279;50.010;8.260;2022-08-21T09:52:00;100444.63;;;24.26;41.55
26657;BME280;14279;50.010;8.260;2022-08-21T09:54:30;100439.81;;;24.29;38.55
26657;BME280;14279;50.010;8.260;2022-08-21T09:57:11;100428.78;;;24.51;38.46
26657;BME280;14279;50.010;8.260;2022-08-21T10:00:38;100425.81;;;24.54;38.29
26657;BME280;14279;50.010;8.260;2022-08-21T10:03:14;100425.56;;;24.39;38.57
26657;BME280;14279;50.010;8.260;2022-08-21T10:05:59;100416.28;;;24.51;38.31
26657;BME280;14279;50.010;8.260;2022-08-21T10:08:27;100423.47;;;24.51;38.18
26657;BME280;14279;50.010;8.260;2022-08-21T10:11:14;100412.97;;;24.49;37.88
26657;BME280;14279;50.010;8.260;2022-08-21T10:25:25;100404.19;;;24.65;37.28
26657;BME280;14279;50.010;8.260;2022-08-21T10:30:56;100405.97;;;24.48;37.49
26657;BME280;14279;50.010;8.260;2022-08-21T10:36:13;100398.47;;;25.03;36.81
26657;BME280;14279;50.010;8.260;2022-08-21T10:42:02;100397.84;;;25.50;36.40
26657;BME280;14279;50.010;8.260;2022-08-21T10:48:59;100393.66;;;25.40;36.72
26657;BME280;14279;50.010;8.260;2022-08-21T10:52:02;100385.50;;;25.41;35.86
26657;BME280;14279;50.010;8.260;2022-08-21T11:05:52;100377.69;;;25.64;35.62
26657;BME280;14279;50.010;8.260;2022-08-21T11:16:01;100368.22;;;26.50;33.43
26657;BME280;14279;50.010;8.260;2022-08-21T11:22:08;100366.53;;;26.57;33.17
26657;BME280;14279;50.010;8.260;2022-08-21T11:25:11;100361.81;;;25.88;33.76
26657;BME280;14279;50.010;8.260;2022-08-21T11:28:58;100362.38;;;26.15;33.80
26657;BME280;14279;50.010;8.260;2022-08-21T11:32:20;100359.59;;;26.39;33.24
26657;BME280;14279;50.010;8.260;2022-08-21T11:41:16;100342.16;;;26.83;32.77
26657;BME280;14279;50.010;8.260;2022-08-21T11:44:21;100345.03;;;26.82;32.78
26657;BME280;14279;50.010;8.260;2022-08-21T11:50:27;100336.00;;;26.83;32.34
26657;BME280;14279;50.010;8.260;2022-08-21T11:52:59;100330.19;;;27.03;32.36
26657;BME280;14279;50.010;8.260;2022-08-21T11:55:36;100336.88;;;26.98;32.44
26657;BME280;14279;50.010;8.260;2022-08-21T11:58:09;100339.31;;;26.85;32.40
26657;BME280;14279;50.010;8.260;2022-08-21T12:00:43;100330.47;;;27.08;31.93
26657;BME280;14279;50.010;8.260;2022-08-21T12:03:15;100333.94;;;27.32;32.33
26657;BME280;14279;50.010;8.260;2022-08-21T12:05:54;100334.16;;;27.60;31.80
26657;BME280;14279;50.010;8.260;2022-08-21T12:09:06;100337.06;;;27.35;31.75
26657;BME280;14279;50.010;8.260;2022-08-21T12:11:32;100324.56;;;27.51;30.93
26657;BME280;14279;50.010;8.260;2022-08-21T12:16:35;100321.31;;;27.85;30.59
26657;BME280;14279;50.010;8.260;2022-08-21T12:27:13;100320.13;;;26.26;32.75
26657;BME280;14279;50.010;8.260;2022-08-21T12:29:59;100326.28;;;26.35;33.15
26657;BME280;14279;50.010;8.260;2022-08-21T12:35:16;100324.53;;;26.19;33.17
26657;BME280;14279;50.010;8.260;2022-08-21T12:37:48;100319.13;;;26.28;32.60
26657;BME280;14279;50.010;8.260;2022-08-21T12:40:20;100325.50;;;26.73;32.37
26657;BME280;14279;50.010;8.260;2022-08-21T12:42:50;100321.03;;;26.74;31.91
26657;BME280;14279;50.010;8.260;2022-08-21T12:45:20;100314.47;;;26.84;31.72
26657;BME280;14279;50.010;8.260;2022-08-21T12:53:26;100308.66;;;26.81;31.42
26657;BME280;14279;50.010;8.260;2022-08-21T12:55:55;100311.84;;;26.99;31.24
26657;BME280;14279;50.010;8.260;2022-08-21T12:58:26;100309.25;;;27.06;31.12
26657;BME280;14279;50.010;8.260;2022-08-21T13:00:58;100301.31;;;27.36;30.74
26657;BME280;14279;50.010;8.260;2022-08-21T13:03:25;100305.72;;;27.44;30.61
26657;BME280;14279;50.010;8.260;2022-08-21T13:05:51;100295.75;;;27.38;30.70
26657;BME280;14279;50.010;8.260;2022-08-21T13:08:19;100291.84;;;27.64;30.41
26657;BME280;14279;50.010;8.260;2022-08-21T13:10:47;100295.16;;;27.51;30.25
26657;BME280;14279;50.010;8.260;2022-08-21T13:13:20;100291.50;;;27.13;30.94
26657;BME280;14279;50.010;8.260;2022-08-21T13:15:46;100283.09;;;27.02;30.84
26657;BME280;14279;50.010;8.260;2022-08-21T13:18:24;100288.53;;;27.08;31.21
26657;BME280;14279;50.010;8.260;2022-08-21T13:20:49;100291.41;;;27.07;31.09
26657;BME280;14279;50.010;8.260;2022-08-21T13:23:24;100293.69;;;26.95;31.17
26657;BME280;14279;50.010;8.260;2022-08-21T13:25:50;100287.03;;;26.91;31.28
26657;BME280;14279;50.010;8.260;2022-08-21T13:28:15;100278.22;;;27.05;31.43
26657;BME280;14279;50.010;8.260;2022-08-21T13:30:44;100276.38;;;27.21;30.91
26657;BME280;14279;50.010;8.260;2022-08-21T13:33:12;100272.34;;;27.25;30.91
26657;BME280;14279;50.010;8.260;2022-08-21T13:35:51;100264.63;;;27.30;30.62
26657;BME280;14279;50.010;8.260;2022-08-21T13:38:25;100267.56;;;27.20;30.85
26657;BME280;14279;50.010;8.260;2022-08-21T13:40:55;100261.88;;;27.38;30.70
26657;BME280;14279;50.010;8.260;2022-08-21T13:43:27;100261.19;;;27.81;30.25
26657;BME280;14279;50.010;8.260;2022-08-21T13:45:54;100268.31;;;27.89;30.06
26657;BME280;14279;50.010;8.260;2022-08-21T13:48:23;100261.13;;;28.26;29.34
26657;BME280;14279;50.010;8.260;2022-08-21T13:50:50;100253.63;;;28.80;28.53
26657;BME280;14279;50.010;8.260;2022-08-21T13:53:32;100249.66;;;29.33;27.76
26657;BME280;14279;50.010;8.260;2022-08-21T13:55:59;100255.31;;;29.45;27.60
26657;BME280;14279;50.010;8.260;2022-08-21T13:58:47;100245.69;;;29.64;27.31
26657;BME280;14279;50.010;8.260;2022-08-21T14:01:35;100246.91;;;29.26;27.79
26657;BME280;14279;50.010;8.260;2022-08-21T14:04:07;100243.28;;;29.05;27.43
26657;BME280;14279;50.010;8.260;2022-08-21T14:06:38;100245.50;;;28.95;27.55
26657;BME280;14279;50.010;8.260;2022-08-21T14:09:09;100245.84;;;28.85;27.70
26657;BME280;14279;50.010;8.260;2022-08-21T14:11:35;100245.28;;;28.97;27.47
26657;BME280;14279;50.010;8.260;2022-08-21T14:14:04;100240.69;;;28.90;27.10
26657;BME280;14279;50.010;8.260;2022-08-21T14:16:54;100239.44;;;29.15;27.11
26657;BME280;14279;50.010;8.260;2022-08-21T14:19:23;100237.28;;;28.75;27.56
26657;BME280;14279;50.010;8.260;2022-08-21T14:21:49;100235.59;;;28.74;27.75
26657;BME280;14279;50.010;8.260;2022-08-21T14:24:30;100239.56;;;29.06;27.48
26657;BME280;14279;50.010;8.260;2022-08-21T14:27:01;100233.84;;;28.81;27.58
26657;BME280;14279;50.010;8.260;2022-08-21T14:29:27;100231.97;;;28.82;27.42
26657;BME280;14279;50.010;8.260;2022-08-21T14:31:56;100232.34;;;29.00;26.90
26657;BME280;14279;50.010;8.260;2022-08-21T14:34:24;100225.22;;;28.64;27.09
26657;BME280;14279;50.010;8.260;2022-08-21T14:36:50;100232.94;;;28.74;27.27
26657;BME280;14279;50.010;8.260;2022-08-21T14:39:15;100219.53;;;28.45;27.82
26657;BME280;14279;50.010;8.260;2022-08-21T14:41:41;100218.59;;;28.82;27.12
26657;BME280;14279;50.010;8.260;2022-08-21T14:44:08;100226.31;;;28.48;27.59